Gaschem Phoenix — ELUO6 — position and weather

sailwx.info

Track history (hours):
 
Tides and Currents Weather Stations Pressure Air Temp Water Temp Dewpoint Dewpoint Depression Visibility Wind Speed Wind Dir Waves Ship Positions

Gaschem Phoenix

Last reported at 2014-Aug-28 17:29 UTC. Time now 2014-Sep-02 02:20 UTC.
Position N 30°59' E 122°50'.

Length 100 m; draft 4.5 m.

Type: Ship. MMSI: 636090235.

Date/timePositionNaut miles runAvg speedWind from/ knotsBaromVisibWave heightAir tempDewpointWater temp
2014-Aug-28 17:29N 30°59' E 122°50'1314.2
2014-Aug-28 16:33N 30°59' E 122°35'1312.3
2014-Aug-28 15:31N 31°02' E 122°20'3210.6
2014-Aug-28 12:32N 31°15' E 121°47'1212.5
2014-Aug-28 11:33N 31°23' E 121°36'10 9.8
2014-Aug-28 10:33N 31°29' E 121°27'1312.6
2014-Aug-28 09:33N 31°37' E 121°16'2412.0
2014-Aug-28 07:33N 31°52' E 120°53'1211.5
2014-Aug-28 06:33N 32°00' E 120°44'1414.0
2014-Aug-28 05:34N 32°02' E 120°28'1413.7
2014-Aug-28 04:33N 31°56' E 120°14'11 5.5
2014-Aug-28 02:31N 31°58' E 120°01'0 0.0
2014-Aug-27 04:21N 31°58' E 120°01'5 6.4
2014-Aug-27 03:33N 31°57' E 120°07'10 9.7
2014-Aug-27 02:33N 31°58' E 120°18'1010.5
2014-Aug-27 01:33N 32°04' E 120°28'10 9.6
2014-Aug-27 00:33N 31°60' E 120°38'10 9.9
2014-Aug-26 23:33N 31°60' E 120°50'1110.8
2014-Aug-26 22:33N 31°50' E 120°55'1110.4
2014-Aug-26 21:27N 31°44' E 121°06'1211.7
2014-Aug-26 20:26N 31°37' E 121°17'3 0.8
2014-Aug-26 16:21N 31°35' E 121°20'0 0.1
2014-Aug-26 14:20N 31°34' E 121°20'0 0.0
2014-Aug-26 13:29N 31°34' E 121°20'0 0.0
2014-Aug-26 11:25N 31°34' E 121°20'0 0.0
2014-Aug-26 09:30N 31°34' E 121°20'0 0.0
2014-Aug-26 07:19N 31°34' E 121°20'5 6.3
2014-Aug-26 06:33N 31°31' E 121°24'9 8.6
2014-Aug-26 05:33N 31°25' E 121°32'10 9.9
2014-Aug-26 04:33N 31°20' E 121°42'3812.3
2014-Aug-26 01:26N 31°02' E 122°21'1110.8
2014-Aug-26 00:22N 30°60' E 122°34'810.2
2014-Aug-25 23:33N 30°58' E 122°44'8 6.9
2014-Aug-25 22:28N 30°58' E 122°52'3 3.0
2014-Aug-25 21:31N 30°58' E 122°56'29 7.1
2014-Aug-25 17:23N 30°57' E 123°30'6 6.9
2014-Aug-25 16:29N 30°56' E 123°37'18 5.7
2014-Aug-25 13:25N 30°58' E 123°57'6 5.8
2014-Aug-25 12:26N 30°58' E 123°51'  
2014-Aug-21 21:20N 34°53' E 139°20'910.9
2014-Aug-21 20:32N 34°58' E 139°29'1010.6
2014-Aug-21 19:33N 35°04' E 139°39'10 9.7
2014-Aug-21 18:33N 35°12' E 139°46'1211.7
2014-Aug-21 17:33N 35°23' E 139°42'1211.8
2014-Aug-21 16:33N 35°31' E 139°53'7 7.0
2014-Aug-21 15:31N 35°31' E 140°02'2 0.1
2014-Aug-21 03:34N 35°31' E 140°00'1 0.5
2014-Aug-21 02:31N 35°31' E 139°60'0 0.0
2014-Aug-21 01:31N 35°31' E 139°60'0 0.0
2014-Aug-21 00:33N 35°31' E 139°60'0 0.1
2014-Aug-20 23:33N 35°31' E 139°60'0 0.0
2014-Aug-20 22:27N 35°31' E 139°60'0 0.0
2014-Aug-20 21:32N 35°31' E 139°60'0 0.0
2014-Aug-20 20:32N 35°31' E 139°60'7 7.0
2014-Aug-20 19:33N 35°28' E 139°52'1211.7
2014-Aug-20 18:33N 35°18' E 139°44'1211.5
2014-Aug-20 17:33N 35°07' E 139°46'1110.9
2014-Aug-20 16:33N 35°01' E 139°35'1211.7
2014-Aug-20 15:33N 34°54' E 139°24'9511.8
2014-Aug-20 07:32N 33°57' E 137°51'  
Track history (hours):
 
Tides and Currents Weather Stations Pressure Air Temp Water Temp Dewpoint Dewpoint Depression Visibility Wind Speed Wind Dir Waves Ship Positions

Gaschem Phoenix

Last reported at 2014-Aug-28 17:29 UTC. Time now 2014-Sep-02 02:20 UTC.
Position N 30°59' E 122°50'.

Length 100 m; draft 4.5 m.

Type: Ship. MMSI: 636090235.

Date/timePositionNaut miles runAvg speedWind from/ knotsBaromVisibWave heightAir tempDewpointWater temp
2014-Aug-28 17:29N 30°59' E 122°50'1314.2
2014-Aug-28 16:33N 30°59' E 122°35'1312.3
2014-Aug-28 15:31N 31°02' E 122°20'3210.6
2014-Aug-28 12:32N 31°15' E 121°47'1212.5
2014-Aug-28 11:33N 31°23' E 121°36'10 9.8
2014-Aug-28 10:33N 31°29' E 121°27'1312.6
2014-Aug-28 09:33N 31°37' E 121°16'2412.0
2014-Aug-28 07:33N 31°52' E 120°53'1211.5
2014-Aug-28 06:33N 32°00' E 120°44'1414.0
2014-Aug-28 05:34N 32°02' E 120°28'1413.7
2014-Aug-28 04:33N 31°56' E 120°14'11 5.5
2014-Aug-28 02:31N 31°58' E 120°01'0 0.0
2014-Aug-27 04:21N 31°58' E 120°01'5 6.4
2014-Aug-27 03:33N 31°57' E 120°07'10 9.7
2014-Aug-27 02:33N 31°58' E 120°18'1010.5
2014-Aug-27 01:33N 32°04' E 120°28'10 9.6
2014-Aug-27 00:33N 31°60' E 120°38'10 9.9
2014-Aug-26 23:33N 31°60' E 120°50'1110.8
2014-Aug-26 22:33N 31°50' E 120°55'1110.4
2014-Aug-26 21:27N 31°44' E 121°06'1211.7
2014-Aug-26 20:26N 31°37' E 121°17'3 0.8
2014-Aug-26 16:21N 31°35' E 121°20'0 0.1
2014-Aug-26 14:20N 31°34' E 121°20'0 0.0
2014-Aug-26 13:29N 31°34' E 121°20'0 0.0
2014-Aug-26 11:25N 31°34' E 121°20'0 0.0
2014-Aug-26 09:30N 31°34' E 121°20'0 0.0
2014-Aug-26 07:19N 31°34' E 121°20'5 6.3
2014-Aug-26 06:33N 31°31' E 121°24'9 8.6
2014-Aug-26 05:33N 31°25' E 121°32'10 9.9
2014-Aug-26 04:33N 31°20' E 121°42'3812.3
2014-Aug-26 01:26N 31°02' E 122°21'1110.8
2014-Aug-26 00:22N 30°60' E 122°34'810.2
2014-Aug-25 23:33N 30°58' E 122°44'8 6.9
2014-Aug-25 22:28N 30°58' E 122°52'3 3.0
2014-Aug-25 21:31N 30°58' E 122°56'29 7.1
2014-Aug-25 17:23N 30°57' E 123°30'6 6.9
2014-Aug-25 16:29N 30°56' E 123°37'18 5.7
2014-Aug-25 13:25N 30°58' E 123°57'6 5.8
2014-Aug-25 12:26N 30°58' E 123°51'  
2014-Aug-21 21:20N 34°53' E 139°20'910.9
2014-Aug-21 20:32N 34°58' E 139°29'1010.6
2014-Aug-21 19:33N 35°04' E 139°39'10 9.7
2014-Aug-21 18:33N 35°12' E 139°46'1211.7
2014-Aug-21 17:33N 35°23' E 139°42'1211.8
2014-Aug-21 16:33N 35°31' E 139°53'7 7.0
2014-Aug-21 15:31N 35°31' E 140°02'2 0.1
2014-Aug-21 03:34N 35°31' E 140°00'1 0.5
2014-Aug-21 02:31N 35°31' E 139°60'0 0.0
2014-Aug-21 01:31N 35°31' E 139°60'0 0.0
2014-Aug-21 00:33N 35°31' E 139°60'0 0.1
2014-Aug-20 23:33N 35°31' E 139°60'0 0.0
2014-Aug-20 22:27N 35°31' E 139°60'0 0.0
2014-Aug-20 21:32N 35°31' E 139°60'0 0.0
2014-Aug-20 20:32N 35°31' E 139°60'7 7.0
2014-Aug-20 19:33N 35°28' E 139°52'1211.7
2014-Aug-20 18:33N 35°18' E 139°44'1211.5
2014-Aug-20 17:33N 35°07' E 139°46'1110.9
2014-Aug-20 16:33N 35°01' E 139°35'1211.7
2014-Aug-20 15:33N 34°54' E 139°24'9511.8
2014-Aug-20 07:32N 33°57' E 137°51'  

Dump ship's entire track history